createdAt,value
2023-05-01T00:01:17.769Z,6.59
2023-05-01T00:06:22.198Z,5.47
2023-05-01T00:11:24.967Z,4.64
2023-05-01T00:16:27.756Z,3.96
2023-05-01T00:21:31.114Z,3.42
2023-05-01T00:26:33.894Z,3.50
2023-05-01T00:31:36.859Z,5.77
2023-05-01T00:36:40.412Z,7.34
2023-05-01T00:41:43.225Z,8.26
2023-05-01T00:46:46.125Z,8.00
2023-05-01T00:51:53.392Z,6.03
2023-05-01T00:56:56.537Z,4.74
2023-05-01T01:01:59.565Z,4.83
2023-05-01T01:07:10.652Z,6.80
2023-05-01T01:12:27.573Z,7.97
2023-05-01T01:17:42.449Z,7.84
2023-05-01T01:22:53.540Z,5.89
2023-05-01T01:28:11.797Z,4.65
2023-05-01T01:33:24.098Z,3.79
2023-05-01T01:38:36.528Z,3.46
2023-05-01T01:43:44.117Z,5.45
2023-05-01T01:48:51.560Z,7.08
2023-05-01T01:53:58.802Z,7.79
2023-05-01T01:59:04.583Z,6.58
2023-05-01T02:04:08.939Z,4.97
2023-05-01T02:09:12.929Z,4.00
2023-05-01T02:14:18.507Z,3.29
2023-05-01T02:19:21.853Z,2.72
2023-05-01T02:24:25.503Z,2.26
2023-05-01T02:29:28.374Z,1.90
2023-05-01T02:34:34.847Z,1.62
2023-05-01T02:39:38.711Z,1.36
2023-05-01T02:45:11.671Z,1.15
2023-05-01T02:50:16.318Z,0.97
2023-05-01T02:55:19.675Z,0.87
2023-05-01T03:00:23.613Z,0.82
2023-05-01T03:05:27.023Z,1.54
2023-05-01T03:10:29.768Z,4.09
2023-05-01T03:15:32.576Z,5.78
2023-05-01T03:20:35.580Z,6.89
2023-05-01T03:25:38.328Z,7.70
2023-05-01T03:30:41.028Z,7.74
2023-05-01T03:35:44.434Z,5.87
2023-05-01T03:40:47.498Z,4.62
2023-05-01T03:45:51.450Z,4.55
2023-05-01T03:50:54.229Z,6.49
2023-05-01T03:55:57.560Z,7.73
2023-05-01T04:01:01.085Z,7.88
2023-05-01T04:06:04.189Z,6.29
2023-05-01T04:11:07.610Z,5.34
2023-05-01T04:16:10.592Z,4.70
2023-05-01T04:21:14.736Z,5.03
2023-05-01T04:26:17.668Z,7.30
2023-05-01T04:31:20.552Z,8.96
2023-05-01T04:36:23.535Z,9.36
2023-05-01T04:41:26.357Z,7.90
2023-05-01T04:46:29.273Z,6.92
2023-05-01T04:51:32.245Z,6.36
2023-05-01T04:56:35.162Z,6.12
2023-05-01T05:01:37.997Z,6.01
2023-05-01T05:06:40.822Z,5.97
2023-05-01T05:11:43.891Z,5.88
2023-05-01T05:16:47.003Z,5.91
2023-05-01T05:21:49.868Z,7.04
2023-05-01T05:26:52.785Z,9.52
2023-05-01T05:31:57.221Z,9.69
2023-05-01T05:36:59.964Z,9.69
2023-05-01T05:42:04.241Z,9.71
2023-05-01T05:47:07.282Z,10.13
2023-05-01T05:52:10.084Z,10.72
2023-05-01T05:57:13.074Z,11.25
2023-05-01T06:02:16.032Z,11.75
2023-05-01T06:07:18.899Z,12.00
2023-05-01T06:12:21.793Z,12.12
2023-05-01T06:17:25.621Z,12.69
2023-05-01T06:22:28.440Z,13.19
2023-05-01T06:27:31.194Z,13.54
2023-05-01T06:32:33.952Z,14.10
2023-05-01T06:37:38.511Z,14.50
2023-05-01T06:42:42.224Z,14.95
2023-05-01T06:47:45.127Z,15.20
2023-05-01T06:52:48.010Z,15.57
2023-05-01T06:57:50.894Z,16.03
2023-05-01T07:02:53.841Z,16.79
2023-05-01T07:08:01.170Z,17.28
2023-05-01T07:13:04.527Z,17.52
2023-05-01T07:18:07.345Z,18.05
2023-05-01T07:23:10.439Z,18.46
2023-05-01T07:28:13.228Z,18.71
2023-05-01T07:33:16.753Z,18.48
2023-05-01T07:38:19.702Z,18.37
2023-05-01T07:43:23.222Z,18.15
2023-05-01T07:48:28.449Z,17.91
2023-05-01T07:53:31.957Z,18.49
2023-05-01T07:58:36.442Z,18.57
2023-05-01T08:03:39.449Z,18.85
2023-05-01T08:08:42.418Z,18.99
2023-05-01T08:13:45.329Z,19.41
2023-05-01T08:18:48.086Z,20.43
2023-05-01T08:23:51.431Z,20.43
2023-05-01T08:28:54.268Z,21.55
2023-05-01T08:33:57.658Z,21.62
2023-05-01T08:39:00.479Z,22.11
2023-05-01T08:44:04.438Z,22.55
2023-05-01T08:49:11.617Z,23.23
2023-05-01T08:54:15.928Z,23.35
2023-05-01T08:59:20.706Z,22.45
2023-05-01T09:04:23.914Z,22.57
2023-05-01T09:09:28.007Z,22.93
2023-05-01T09:14:32.048Z,23.28
2023-05-01T09:19:34.920Z,23.68
2023-05-01T09:24:37.658Z,23.36
2023-05-01T09:29:46.110Z,24.29
2023-05-01T09:34:50.711Z,24.44
2023-05-01T09:40:11.382Z,24.49
2023-05-01T09:45:15.304Z,24.87
2023-05-01T09:50:35.000Z,25.09
2023-05-01T09:55:37.978Z,25.99
2023-05-01T10:00:50.082Z,26.43
2023-05-01T10:05:53.103Z,26.44
2023-05-01T10:11:05.377Z,25.83
2023-05-01T10:16:27.927Z,25.97
2023-05-01T10:21:34.523Z,25.70
2023-05-01T10:26:38.078Z,25.69
2023-05-01T10:31:42.703Z,26.41
2023-05-01T10:36:53.700Z,26.91
2023-05-01T10:41:59.722Z,26.99
2023-05-01T10:47:24.811Z,26.99
2023-05-01T10:52:27.901Z,27.34
2023-05-01T10:57:44.592Z,27.36
2023-05-01T11:02:47.386Z,27.09
2023-05-01T11:08:29.192Z,27.20
2023-05-01T11:14:04.369Z,27.25
2023-05-01T11:19:23.336Z,27.87
2023-05-01T11:24:33.153Z,28.17
2023-05-01T11:29:37.716Z,28.67
2023-05-01T11:34:40.853Z,28.32
2023-05-01T11:39:51.127Z,28.03
2023-05-01T11:45:08.008Z,28.16
2023-05-01T11:50:11.714Z,27.97
2023-05-01T11:55:14.617Z,27.91
2023-05-01T12:00:27.946Z,28.49
2023-05-01T12:05:32.148Z,29.13
2023-05-01T12:10:36.359Z,28.38
2023-05-01T12:15:50.809Z,28.27
2023-05-01T12:20:55.437Z,28.85
2023-05-01T12:25:58.399Z,28.81
2023-05-01T12:31:05.173Z,28.77
2023-05-01T12:36:13.013Z,28.86
2023-05-01T12:41:15.800Z,29.05
2023-05-01T12:46:18.707Z,29.25
2023-05-01T12:51:22.989Z,29.71
2023-05-01T12:56:26.027Z,29.79
2023-05-01T13:01:29.319Z,29.83
2023-05-01T13:06:35.555Z,30.81
2023-05-01T13:11:39.007Z,31.43
2023-05-01T13:16:49.840Z,31.64
2023-05-01T13:21:52.675Z,31.02
2023-05-01T13:27:02.377Z,30.03
2023-05-01T13:32:11.088Z,29.33
2023-05-01T13:37:14.114Z,28.66
2023-05-01T13:42:27.253Z,29.10
2023-05-01T13:47:30.105Z,29.42
2023-05-01T13:52:33.059Z,28.76
2023-05-01T13:57:38.559Z,29.06
2023-05-01T14:02:48.774Z,29.61
2023-05-01T14:07:57.199Z,30.13
2023-05-01T14:13:00.641Z,30.03
2023-05-01T14:18:07.551Z,29.95
2023-05-01T14:23:10.772Z,30.01
2023-05-01T14:28:14.812Z,29.75
2023-05-01T14:33:17.756Z,29.35
2023-05-01T14:38:25.850Z,28.79
2023-05-01T14:43:28.721Z,28.43
2023-05-01T14:48:36.014Z,28.08
2023-05-01T14:53:42.629Z,27.91
2023-05-01T14:58:46.968Z,27.20
2023-05-01T15:03:50.056Z,27.60
2023-05-01T15:08:53.114Z,28.15
2023-05-01T15:13:56.336Z,28.16
2023-05-01T15:18:59.610Z,28.09
2023-05-01T15:24:02.941Z,26.18
2023-05-01T15:29:05.678Z,23.50
2023-05-01T15:34:08.475Z,21.69
2023-05-01T15:39:12.109Z,20.46
2023-05-01T15:44:15.205Z,19.61
2023-05-01T15:49:18.677Z,19.00
2023-05-01T15:54:21.891Z,18.63
2023-05-01T15:59:25.672Z,18.29
2023-05-01T16:04:28.520Z,18.03
2023-05-01T16:09:32.433Z,17.84
2023-05-01T16:14:42.225Z,17.63
2023-05-01T16:19:45.970Z,17.46
2023-05-01T16:24:49.234Z,17.31
2023-05-01T16:29:52.347Z,17.13
2023-05-01T16:34:55.064Z,16.92
2023-05-01T16:39:59.649Z,16.76
2023-05-01T16:45:02.949Z,16.65
2023-05-01T16:50:09.824Z,16.60
2023-05-01T16:55:13.279Z,16.47
2023-05-01T17:00:17.139Z,16.35
2023-05-01T17:05:20.499Z,16.22
2023-05-01T17:10:23.278Z,16.07
2023-05-01T17:15:26.305Z,15.94
2023-05-01T17:20:29.067Z,15.78
2023-05-01T17:25:32.077Z,15.56
2023-05-01T17:30:35.446Z,15.33
2023-05-01T17:35:38.295Z,15.09
2023-05-01T17:40:41.306Z,14.83
2023-05-01T17:45:45.685Z,14.57
2023-05-01T17:50:49.161Z,14.31
2023-05-01T17:55:51.999Z,14.07
2023-05-01T18:00:55.899Z,13.82
2023-05-01T18:06:04.574Z,13.59
2023-05-01T18:11:07.532Z,13.36
2023-05-01T18:16:11.325Z,13.15
2023-05-01T18:21:14.782Z,12.97
2023-05-01T18:26:17.881Z,12.80
2023-05-01T18:31:20.916Z,12.67
2023-05-01T18:36:24.204Z,12.53
2023-05-01T18:41:27.419Z,12.45
2023-05-01T18:46:30.362Z,12.37
2023-05-01T18:51:33.435Z,12.28
2023-05-01T18:56:36.230Z,12.19
2023-05-01T19:01:39.093Z,12.11
2023-05-01T19:06:41.949Z,12.04
2023-05-01T19:11:44.938Z,11.96
2023-05-01T19:16:47.914Z,11.88
2023-05-01T19:21:51.213Z,11.84
2023-05-01T19:26:54.054Z,11.79
2023-05-01T19:31:57.034Z,11.76
2023-05-01T19:37:02.084Z,11.73
2023-05-01T19:42:05.006Z,11.69
2023-05-01T19:47:07.832Z,11.66
2023-05-01T19:52:10.678Z,11.62
2023-05-01T19:57:13.462Z,11.54
2023-05-01T20:02:16.485Z,11.43
2023-05-01T20:07:19.341Z,11.31
2023-05-01T20:12:25.117Z,11.16
2023-05-01T20:17:28.026Z,11.01
2023-05-01T20:22:30.773Z,10.85
2023-05-01T20:27:33.729Z,10.71
2023-05-01T20:37:44.862Z,10.51
2023-05-01T20:42:47.766Z,10.41
2023-05-01T20:47:50.582Z,10.30
2023-05-01T20:52:55.681Z,10.19
2023-05-01T20:57:58.759Z,10.08
2023-05-01T21:03:01.957Z,9.94
2023-05-01T21:08:04.943Z,9.81
2023-05-01T21:13:07.673Z,9.71
2023-05-01T21:18:14.337Z,9.62
2023-05-01T21:23:17.899Z,9.56
2023-05-01T21:28:20.865Z,9.53
2023-05-01T21:33:23.687Z,9.52
2023-05-01T21:38:26.786Z,9.49
2023-05-01T21:43:33.795Z,9.48
2023-05-01T21:48:36.586Z,9.45
2023-05-01T21:53:41.120Z,9.45
2023-05-01T21:58:44.007Z,9.45
2023-05-01T22:03:46.909Z,9.48
2023-05-01T22:08:53.215Z,9.50
2023-05-01T22:13:56.946Z,9.49
2023-05-01T22:19:00.596Z,9.48
2023-05-01T22:24:03.605Z,9.49
2023-05-01T22:29:06.981Z,9.48
2023-05-01T22:34:10.049Z,9.50
2023-05-01T22:39:12.799Z,9.55
2023-05-01T22:44:15.993Z,9.57
2023-05-01T22:49:19.008Z,9.58
2023-05-01T22:54:22.230Z,9.58
2023-05-01T22:59:26.043Z,9.59
2023-05-01T23:04:29.427Z,9.62
2023-05-01T23:09:32.563Z,9.66
2023-05-01T23:14:41.188Z,9.70
2023-05-01T23:19:45.620Z,9.74
2023-05-01T23:24:49.437Z,9.77
2023-05-01T23:29:54.896Z,9.81
2023-05-01T23:35:05.126Z,9.83
2023-05-01T23:40:09.642Z,9.84
2023-05-01T23:45:12.974Z,9.82
2023-05-01T23:50:16.197Z,9.81
2023-05-01T23:55:19.083Z,9.80
